Time;durP1;ratioP1;P1;durP2;ratioP2;P2;SDS_P1;SDS_P2;PMS_P1;PMS_P2;Temp;Humidity;BMP_temperature;BMP_pressure;BME280_temperature;BME280_humidity;BME280_pressure;Samples;Min_cycle;Max_cycle;Signal;HPM_P1;HPM_P2
2023/10/28 00:00:29;;;;;;;47.35;25.75;;;;;;;-149.70;100.00;75901.88;5000482;28;20525;-62
2023/10/28 00:02:56;;;;;;;50.83;26.45;;;;;;;-149.70;100.00;75885.63;5001274;28;20549;-63
2023/10/28 00:05:24;;;;;;;47.45;24.50;;;;;;;-149.70;100.00;75883.59;5001768;28;20129;-63
2023/10/28 00:07:51;;;;;;;54.70;26.00;;;;;;;-149.70;100.00;75879.53;5002735;28;20050;-63
2023/10/28 00:10:18;;;;;;;48.80;24.85;;;;;;;-149.70;100.00;75893.75;5005810;28;20042;-63
2023/10/28 00:12:45;;;;;;;49.10;25.48;;;;;;;-149.70;100.00;75901.88;5009986;28;20046;-64
2023/10/28 00:15:13;;;;;;;51.63;24.95;;;;;;;-149.70;100.00;75891.72;5009595;28;20046;-63
2023/10/28 00:17:40;;;;;;;47.75;24.90;;;;;;;-149.70;100.00;75889.69;5012070;28;20073;-65
2023/10/28 00:20:08;;;;;;;43.97;23.55;;;;;;;-149.70;100.00;75887.66;5011228;28;20081;-63
2023/10/28 00:22:35;;;;;;;42.65;22.48;;;;;;;-149.70;100.00;75891.72;5010524;28;20477;-63
2023/10/28 00:25:03;;;;;;;41.67;23.35;;;;;;;-149.70;100.00;75891.72;5011382;28;20113;-63
2023/10/28 00:27:32;;;;;;;45.45;24.42;;;;;;;-149.70;100.00;75893.75;5011091;28;20052;-64
2023/10/28 00:30:00;;;;;;;46.90;22.70;;;;;;;-149.70;100.00;75897.81;5010941;28;20166;-63
2023/10/28 00:32:27;;;;;;;45.47;22.85;;;;;;;-149.70;100.00;75897.81;5011117;28;20122;-63
2023/10/28 00:34:54;;;;;;;45.38;21.85;;;;;;;-149.70;100.00;75905.97;5009670;28;20042;-64
2023/10/28 00:37:20;;;;;;;42.40;22.13;;;;;;;-149.70;100.00;75899.84;5010194;28;20046;-64
2023/10/28 00:39:47;;;;;;;48.33;22.98;;;;;;;-149.70;100.00;75930.34;5010089;28;20046;-63
2023/10/28 00:42:16;;;;;;;41.13;22.02;;;;;;;-149.70;100.00;75918.16;5010830;28;20042;-65
2023/10/28 00:44:43;;;;;;;41.28;21.10;;;;;;;-149.70;100.00;75918.16;5009414;28;20049;-64
2023/10/28 00:47:12;;;;;;;42.90;22.63;;;;;;;-149.70;100.00;75916.13;5010252;28;20034;-62
2023/10/28 00:49:39;;;;;;;40.88;22.20;;;;;;;-149.70;100.00;75912.06;5009625;28;20050;-63
2023/10/28 00:52:06;;;;;;;47.13;23.45;;;;;;;-149.70;100.00;75916.13;5011086;28;20066;-64
2023/10/28 00:54:35;;;;;;;44.30;23.10;;;;;;;-149.70;100.00;75920.19;5027671;28;20045;-64
2023/10/28 00:57:02;;;;;;;49.83;23.90;;;;;;;-149.70;100.00;75914.09;5030555;28;20125;-63
2023/10/28 00:59:30;;;;;;;44.63;22.75;;;;;;;-149.70;100.00;75914.09;5029434;28;20054;-63
2023/10/28 01:01:57;;;;;;;46.22;22.15;;;;;;;-149.70;100.00;75912.06;5029259;28;20046;-63
2023/10/28 01:04:23;;;;;;;46.38;23.70;;;;;;;-149.70;100.00;75903.94;5029062;28;20054;-63
2023/10/28 01:06:50;;;;;;;46.00;23.77;;;;;;;-149.70;100.00;75901.88;5030142;28;20046;-63
2023/10/28 01:09:18;;;;;;;50.40;24.55;;;;;;;-149.70;100.00;75899.84;5030439;28;20054;-64
2023/10/28 01:11:46;;;;;;;45.53;24.35;;;;;;;-149.70;100.00;75897.81;5030209;28;20049;-63
2023/10/28 01:14:13;;;;;;;42.97;23.25;;;;;;;-149.70;100.00;75891.72;5029354;28;20073;-62
2023/10/28 01:16:40;;;;;;;44.63;22.98;;;;;;;-149.70;100.00;75893.75;5028711;28;20096;-63
2023/10/28 01:19:09;;;;;;;45.17;22.67;;;;;;;-149.70;100.00;75903.94;5029192;28;20056;-63
2023/10/28 01:21:35;;;;;;;48.25;22.88;;;;;;;-149.70;100.00;75908.00;5028699;28;20049;-63
2023/10/28 01:24:03;;;;;;;46.75;22.63;;;;;;;-149.70;100.00;75922.22;5029663;28;20073;-63
2023/10/28 01:26:30;;;;;;;57.33;25.13;;;;;;;-149.70;100.00;75926.28;5027848;28;20054;-63
2023/10/28 01:28:57;;;;;;;52.75;24.02;;;;;;;-149.70;100.00;75938.50;5027427;28;20076;-63
2023/10/28 01:31:23;;;;;;;42.33;21.05;;;;;;;-149.70;100.00;75938.50;5024163;28;20081;-61
2023/10/28 01:33:51;;;;;;;49.47;22.95;;;;;;;-149.70;100.00;75946.63;5013862;28;20406;-63
2023/10/28 01:36:17;;;;;;;49.75;22.27;;;;;;;-149.70;100.00;75956.78;5024351;28;20038;-63
2023/10/28 01:38:44;;;;;;;53.13;23.88;;;;;;;-149.70;100.00;75966.94;5032464;28;20045;-64
2023/10/28 01:41:13;;;;;;;56.00;24.73;;;;;;;-149.70;100.00;75950.69;5031343;28;20034;-63
2023/10/28 01:43:45;;;;;;;43.25;21.85;;;;;;;-149.70;100.00;75936.44;5031293;28;20063;-63
2023/10/28 01:46:12;;;;;;;49.53;22.17;;;;;;;-149.70;100.00;75934.41;5031160;28;20466;-63
2023/10/28 01:48:39;;;;;;;42.40;20.92;;;;;;;-149.70;100.00;75946.63;5030932;28;20049;-63
2023/10/28 01:51:06;;;;;;;48.15;22.13;;;;;;;-149.70;100.00;75930.34;5030037;28;20034;-63
2023/10/28 01:53:33;;;;;;;46.03;22.10;;;;;;;-149.70;100.00;75918.16;5031199;28;20054;-64
2023/10/28 01:56:00;;;;;;;50.47;21.70;;;;;;;-149.70;100.00;75938.50;5030181;28;20314;-64
2023/10/28 01:58:28;;;;;;;49.95;21.10;;;;;;;-149.70;100.00;75932.38;5026207;28;20052;-64
2023/10/28 02:00:55;;;;;;;43.92;20.77;;;;;;;-149.70;100.00;75922.22;5024282;28;20477;-63
2023/10/28 02:03:22;;;;;;;50.63;20.88;;;;;;;-149.70;100.00;75910.03;5026798;28;20054;-63
2023/10/28 02:09:36;;;;;;;45.67;19.98;;;;;;;-149.70;100.00;75926.28;5025607;28;20190;-64
2023/10/28 02:12:04;;;;;;;49.40;19.75;;;;;;;-149.70;100.00;75942.56;5026706;28;20050;-63
2023/10/28 02:14:30;;;;;;;42.53;20.10;;;;;;;-149.70;100.00;75928.31;5027385;28;20113;-64
2023/10/28 02:16:58;;;;;;;40.20;19.48;;;;;;;-149.70;100.00;75926.28;5027250;28;20046;-63
2023/10/28 02:19:26;;;;;;;43.20;19.73;;;;;;;-149.70;100.00;75952.72;5026627;28;20064;-64
2023/10/28 02:21:54;;;;;;;38.20;18.13;;;;;;;-149.70;100.00;75960.84;5026866;28;20053;-64
2023/10/28 02:24:38;;;;;;;38.05;17.33;;;;;;;-149.70;100.00;75966.94;5025742;28;20053;-64
2023/10/28 02:27:05;;;;;;;34.08;17.27;;;;;;;-149.70;100.00;75977.13;5025957;28;20050;-63
2023/10/28 02:29:31;;;;;;;40.75;17.60;;;;;;;-149.70;100.00;75979.16;5024982;28;20054;-63
2023/10/28 02:31:58;;;;;;;55.72;20.33;;;;;;;-149.70;100.00;75968.97;5024692;28;20057;-63
2023/10/28 02:34:24;;;;;;;39.83;18.05;;;;;;;-149.70;100.00;75964.91;5024908;28;20133;-64
2023/10/28 02:36:51;;;;;;;44.42;18.20;;;;;;;-149.70;100.00;75958.81;5024483;28;20046;-64
2023/10/28 02:39:18;;;;;;;39.08;18.55;;;;;;;-149.70;100.00;75966.94;5024628;28;20049;-64
2023/10/28 02:41:44;;;;;;;36.22;16.83;;;;;;;-149.70;100.00;75975.09;5024065;28;20109;-64
2023/10/28 02:44:11;;;;;;;33.78;15.50;;;;;;;-149.70;100.00;75983.22;5023948;28;20045;-64
2023/10/28 02:46:38;;;;;;;31.55;15.02;;;;;;;-149.70;100.00;75991.34;5005039;28;20549;-64
2023/10/28 02:49:05;;;;;;;33.13;15.60;;;;;;;-149.70;100.00;75983.22;5023650;28;20056;-63
2023/10/28 02:51:32;;;;;;;33.60;15.10;;;;;;;-149.70;100.00;75983.22;5021877;28;20049;-63
2023/10/28 02:53:58;;;;;;;29.70;14.88;;;;;;;-149.70;100.00;75989.31;5011461;28;20065;-63
2023/10/28 02:56:25;;;;;;;26.75;13.25;;;;;;;-149.70;100.00;75975.09;5003088;28;20061;-63
2023/10/28 02:58:53;;;;;;;26.33;13.10;;;;;;;-149.70;100.00;75995.41;5004405;28;20081;-64
2023/10/28 03:01:20;;;;;;;36.40;14.18;;;;;;;-149.70;100.00;75985.25;4988930;28;20096;-65
2023/10/28 03:03:46;;;;;;;28.60;12.93;;;;;;;-149.70;100.00;75983.22;5006411;28;20070;-64
2023/10/28 03:06:13;;;;;;;22.65;11.48;;;;;;;-149.70;100.00;75985.25;5006076;28;20461;-64
2023/10/28 03:08:39;;;;;;;23.02;11.65;;;;;;;-149.70;100.00;75983.22;5004429;28;20054;-63
2023/10/28 03:11:08;;;;;;;20.38;10.25;;;;;;;-149.70;100.00;75999.47;5005974;28;20058;-63
2023/10/28 03:13:35;;;;;;;21.00;10.73;;;;;;;-149.70;100.00;75991.34;5005698;28;20125;-64
2023/10/28 03:16:01;;;;;;;17.25;9.05;;;;;;;-149.70;100.00;76007.63;5005636;28;20108;-63
2023/10/28 03:18:30;;;;;;;18.33;9.38;;;;;;;-149.70;100.00;76023.88;5006662;28;20565;-64
2023/10/28 03:20:57;;;;;;;16.58;8.68;;;;;;;-149.70;100.00;75999.47;5007198;28;20101;-64
2023/10/28 03:23:24;;;;;;;14.38;7.57;;;;;;;-149.70;100.00;76027.94;5005399;28;20499;-63
2023/10/28 03:25:52;;;;;;;19.20;8.68;;;;;;;-149.70;100.00;76011.69;5004783;28;20101;-63
2023/10/28 03:28:18;;;;;;;16.92;9.13;;;;;;;-149.70;100.00;76009.66;5005415;28;20042;-64
2023/10/28 03:30:45;;;;;;;18.75;8.75;;;;;;;-149.70;100.00;76019.81;5005787;28;20078;-63
2023/10/28 03:33:13;;;;;;;13.93;7.75;;;;;;;-149.70;100.00;76036.06;4988389;28;20050;-63
2023/10/28 03:35:39;;;;;;;15.88;8.75;;;;;;;-149.70;100.00;76029.97;5003605;28;21496;-63
2023/10/28 03:38:06;;;;;;;17.83;8.38;;;;;;;-149.70;100.00;76044.22;5003479;28;20100;-63
2023/10/28 03:40:32;;;;;;;15.52;7.40;;;;;;;-149.70;100.00;76040.13;5003720;28;20074;-63
2023/10/28 03:42:59;;;;;;;17.33;8.75;;;;;;;-149.70;100.00;76027.94;5007534;28;20074;-63
2023/10/28 03:45:26;;;;;;;19.20;8.25;;;;;;;-149.70;100.00;76040.13;5005378;28;20061;-63
2023/10/28 03:47:53;;;;;;;14.82;8.13;;;;;;;-149.70;100.00;76038.09;5006901;28;20073;-63
2023/10/28 03:50:20;;;;;;;14.95;7.68;;;;;;;-149.70;100.00;76040.13;5005470;28;20069;-63
2023/10/28 03:52:47;;;;;;;13.80;8.55;;;;;;;-149.70;100.00;76062.50;5009040;28;20046;-62
2023/10/28 03:55:14;;;;;;;15.00;8.27;;;;;;;-149.70;100.00;76064.53;5025394;28;20045;-63
2023/10/28 03:57:40;;;;;;;13.32;7.93;;;;;;;-149.70;100.00;76072.66;5024344;28;20103;-64
2023/10/28 04:00:11;;;;;;;12.48;7.38;;;;;;;-149.70;100.00;76070.63;5024770;28;20045;-63
2023/10/28 04:02:37;;;;;;;16.05;8.70;;;;;;;-149.70;100.00;76064.53;5022519;28;20587;-63
2023/10/28 04:05:05;;;;;;;16.60;8.63;;;;;;;-149.70;100.00;76064.53;5024492;28;20053;-63
2023/10/28 04:07:32;;;;;;;13.55;7.80;;;;;;;-149.70;100.00;76068.59;5022364;28;20054;-63
2023/10/28 04:10:04;;;;;;;13.70;7.95;;;;;;;-149.70;100.00;76064.53;5024644;28;20046;-63
2023/10/28 04:12:32;;;;;;;16.40;7.82;;;;;;;-149.70;100.00;76050.31;5021917;28;20490;-63
2023/10/28 04:14:59;;;;;;;12.57;7.22;;;;;;;-149.70;100.00;76058.44;5023738;28;20046;-64
2023/10/28 04:17:30;;;;;;;12.77;7.20;;;;;;;-149.70;100.00;76056.41;5021822;28;20096;-63
2023/10/28 04:19:57;;;;;;;6.75;4.40;;;;;;;-149.70;100.00;76078.78;5024023;28;20050;-63
2023/10/28 04:22:24;;;;;;;10.23;6.85;;;;;;;-149.70;100.00;76072.66;5022494;28;20061;-64
2023/10/28 04:24:51;;;;;;;8.63;6.25;;;;;;;-149.70;100.00;76086.91;5022373;28;20046;-65
2023/10/28 04:27:17;;;;;;;11.70;7.20;;;;;;;-149.70;100.00;76080.81;5024390;28;20442;-63
2023/10/28 04:29:45;;;;;;;9.63;7.05;;;;;;;-149.70;100.00;76080.81;5023777;28;20041;-64
2023/10/28 04:32:12;;;;;;;9.43;6.55;;;;;;;-149.70;100.00;76097.06;5006860;28;20568;-63
2023/10/28 04:34:39;;;;;;;12.75;7.05;;;;;;;-149.70;100.00;76080.81;5023338;28;20050;-63
2023/10/28 04:37:22;;;;;;;10.32;6.82;;;;;;;-149.70;100.00;76088.94;5021755;28;20054;-63
2023/10/28 04:39:49;;;;;;;10.27;6.85;;;;;;;-149.70;100.00;76084.88;5022519;28;20056;-63
2023/10/28 04:42:16;;;;;;;10.15;6.10;;;;;;;-149.70;100.00;76097.06;5021497;28;20050;-64
2023/10/28 04:44:43;;;;;;;12.40;6.63;;;;;;;-149.70;100.00;76093.00;5021259;28;20041;-63
2023/10/28 04:47:10;;;;;;;9.77;6.47;;;;;;;-149.70;100.00;76093.00;5022140;28;20087;-63
2023/10/28 04:49:37;;;;;;;10.07;6.50;;;;;;;-149.70;100.00;76080.81;5022799;28;20054;-63
2023/10/28 04:52:04;;;;;;;9.20;6.45;;;;;;;-149.70;100.00;76078.78;5022069;28;20053;-63
2023/10/28 04:54:30;;;;;;;11.00;6.20;;;;;;;-149.70;100.00;76084.88;5006063;28;20495;-64
2023/10/28 04:56:59;;;;;;;9.68;6.53;;;;;;;-149.70;100.00;76082.84;5003101;28;20042;-63
2023/10/28 04:59:28;;;;;;;10.85;6.72;;;;;;;-149.70;100.00;76097.06;4992570;28;20054;-64
2023/10/28 05:01:55;;;;;;;8.68;5.90;;;;;;;-149.70;100.00;76099.09;4990849;28;20101;-63
2023/10/28 05:04:25;;;;;;;9.13;6.25;;;;;;;-149.70;100.00;76101.13;4995510;28;20054;-64
2023/10/28 05:06:52;;;;;;;11.55;7.40;;;;;;;-149.70;100.00;76109.28;5006062;28;20050;-64
2023/10/28 05:09:20;;;;;;;11.20;6.82;;;;;;;-149.70;100.00;76101.13;5012884;28;20077;-64
2023/10/28 05:11:56;;;;;;;11.77;6.68;;;;;;;-149.70;100.00;76086.91;5011979;28;20038;-63
2023/10/28 05:14:23;;;;;;;10.65;7.70;;;;;;;-149.70;100.00;76088.94;5011699;28;20050;-64
2023/10/28 05:16:50;;;;;;;12.43;7.65;;;;;;;-149.70;100.00;76095.03;5011887;28;20050;-64
2023/10/28 05:19:18;;;;;;;13.77;7.45;;;;;;;-149.70;100.00;76109.28;5011911;28;20030;-64
2023/10/28 05:21:46;;;;;;;12.23;8.00;;;;;;;-149.70;100.00;76105.19;5011553;28;20093;-64
2023/10/28 05:24:14;;;;;;;14.52;8.35;;;;;;;-149.70;100.00;76097.06;5002841;28;20046;-63
2023/10/28 05:26:40;;;;;;;11.07;7.10;;;;;;;-149.70;100.00;76101.13;4994363;28;25286;-64
2023/10/28 05:29:07;;;;;;;12.55;7.50;;;;;;;-149.70;100.00;76121.47;4991350;28;20474;-63
2023/10/28 05:31:33;;;;;;;13.32;9.15;;;;;;;-149.70;100.00;76137.72;4992259;28;20047;-64
2023/10/28 05:34:00;;;;;;;13.57;8.95;;;;;;;-149.70;100.00;76129.59;4992214;28;20093;-63
2023/10/28 05:36:26;;;;;;;17.00;10.23;;;;;;;-149.70;100.00;76115.38;4991789;28;20051;-64
2023/10/28 05:38:54;;;;;;;15.77;10.13;;;;;;;-149.70;100.00;76113.34;4991518;28;20490;-63
2023/10/28 05:41:22;;;;;;;16.20;10.63;;;;;;;-149.70;100.00;76125.53;4991438;28;20058;-64
2023/10/28 05:43:48;;;;;;;15.57;10.35;;;;;;;-149.70;100.00;76131.63;4974998;28;20448;-63
2023/10/28 05:46:16;;;;;;;17.20;10.63;;;;;;;-149.70;100.00;76145.88;4992199;28;20052;-63
2023/10/28 05:48:43;;;;;;;15.10;10.75;;;;;;;-149.70;100.00;76151.97;4994347;28;20553;-63
2023/10/28 05:51:09;;;;;;;18.15;11.90;;;;;;;-149.70;100.00;76156.03;4992252;28;20047;-63
2023/10/28 05:53:36;;;;;;;20.50;12.45;;;;;;;-149.70;100.00;76151.97;5001126;28;20050;-63
2023/10/28 05:56:03;;;;;;;18.50;12.48;;;;;;;-149.70;100.00;76141.78;5025865;28;20030;-64
2023/10/28 05:58:30;;;;;;;18.65;13.02;;;;;;;-149.70;100.00;76139.75;5030702;28;20050;-64
2023/10/28 06:00:59;;;;;;;17.63;12.80;;;;;;;-149.70;100.00;76135.69;5030934;28;20050;-64
2023/10/28 06:03:26;;;;;;;19.85;13.77;;;;;;;-149.70;100.00;76133.66;5029909;28;20049;-64
2023/10/28 06:05:52;;;;;;;20.80;13.88;;;;;;;-149.70;100.00;76151.97;5030748;28;20076;-64
2023/10/28 06:08:19;;;;;;;22.42;14.57;;;;;;;-149.70;100.00;76178.41;5030774;28;20046;-64
2023/10/28 06:10:47;;;;;;;21.95;13.77;;;;;;;-149.70;100.00;76170.25;5029178;28;20526;-65
2023/10/28 06:13:14;;;;;;;22.75;14.73;;;;;;;-149.70;100.00;76166.19;5027915;28;20038;-63
2023/10/28 06:15:41;;;;;;;25.33;15.05;;;;;;;-149.70;100.00;76164.16;5026927;28;20115;-63
2023/10/28 06:18:08;;;;;;;24.02;14.98;;;;;;;-149.70;100.00;76182.47;5027355;28;20045;-63
2023/10/28 06:20:34;;;;;;;24.90;15.52;;;;;;;-149.70;100.00;76188.56;5024457;28;20108;-64
2023/10/28 06:23:03;;;;;;;22.75;15.77;;;;;;;-149.70;100.00;76176.38;5021910;28;20050;-63
2023/10/28 06:25:30;;;;;;;26.45;17.08;;;;;;;-149.70;100.00;76182.47;5018551;28;20085;-63
2023/10/28 06:27:57;;;;;;;26.25;16.38;;;;;;;-149.70;100.00;76182.47;5015888;28;20038;-63
2023/10/28 06:30:24;;;;;;;27.73;16.65;;;;;;;-149.70;100.00;76186.53;5014816;28;20050;-63
2023/10/28 06:32:50;;;;;;;25.38;16.70;;;;;;;-149.70;100.00;76186.53;5010962;28;20490;-63
2023/10/28 06:35:17;;;;;;;26.13;16.85;;;;;;;-149.70;100.00;76174.31;5010752;28;20052;-63
2023/10/28 06:37:44;;;;;;;27.92;17.75;;;;;;;-149.70;100.00;76174.31;5009981;28;20049;-62
2023/10/28 06:40:11;;;;;;;26.40;17.02;;;;;;;-149.70;100.00;76174.31;5010189;28;20053;-62
2023/10/28 06:42:38;;;;;;;27.58;17.52;;;;;;;-149.70;100.00;76154.00;4992678;28;20493;-63
2023/10/28 06:45:10;;;;;;;27.60;18.30;;;;;;;-149.70;100.00;76154.00;5009833;28;20509;-62
2023/10/28 06:47:37;;;;;;;26.17;17.38;;;;;;;-149.70;100.00;76166.19;5010683;28;20085;-62
2023/10/28 06:50:06;;;;;;;28.25;17.85;;;;;;;-149.70;100.00;76176.38;5010523;28;20134;-62
2023/10/28 06:52:33;;;;;;;34.40;19.70;;;;;;;-149.70;100.00;76188.56;5010221;28;20407;-63
2023/10/28 06:55:00;;;;;;;27.33;18.77;;;;;;;-149.70;100.00;76192.63;4991928;28;20507;-63
2023/10/28 06:57:27;;;;;;;26.02;18.60;;;;;;;-149.70;100.00;76178.41;4992591;28;20391;-62
2023/10/28 06:59:53;;;;;;;28.67;19.55;;;;;;;-149.70;100.00;76192.63;4992180;28;20070;-63
2023/10/28 07:02:21;;;;;;;27.33;18.95;;;;;;;-149.70;100.00;76206.84;4976233;28;20053;-62
2023/10/28 07:04:48;;;;;;;30.10;20.30;;;;;;;-149.70;100.00;76180.44;4993262;28;20121;-63
2023/10/28 07:07:14;;;;;;;28.83;19.38;;;;;;;-149.70;100.00;76196.69;4993314;28;20577;-63
2023/10/28 07:09:41;;;;;;;30.48;20.52;;;;;;;-149.70;100.00;76210.94;4993950;28;20054;-63
2023/10/28 07:12:08;;;;;;;33.63;20.63;;;;;;;-149.70;100.00;76221.09;4994011;28;20042;-63
2023/10/28 07:14:34;;;;;;;31.45;21.85;;;;;;;-149.70;100.00;76227.19;4995789;28;20054;-63
2023/10/28 07:17:02;;;;;;;30.55;20.92;;;;;;;-149.70;100.00;76212.97;4998668;28;20495;-62
2023/10/28 07:19:28;;;;;;;31.88;21.23;;;;;;;-149.70;100.00;76219.06;4998937;28;20129;-62
2023/10/28 07:21:55;;;;;;;35.97;21.80;;;;;;;-149.70;100.00;76206.84;4999013;28;20046;-61
2023/10/28 07:24:21;;;;;;;31.75;21.92;;;;;;;-149.70;100.00;76204.81;4999171;28;20054;-64
2023/10/28 07:26:48;;;;;;;33.47;23.33;;;;;;;-149.70;100.00;76206.84;5000652;28;20075;-63
2023/10/28 07:29:14;;;;;;;33.17;21.90;;;;;;;-149.70;100.00;76196.69;5000005;28;20050;-63
2023/10/28 07:31:41;;;;;;;29.13;20.65;;;;;;;-149.70;100.00;76186.53;4982354;28;20050;-63
2023/10/28 07:34:07;;;;;;;29.23;20.98;;;;;;;-149.70;100.00;76178.41;4999440;28;20042;-63
2023/10/28 07:36:34;;;;;;;31.73;22.15;;;;;;;-149.70;100.00;76194.66;5000153;28;20054;-63
2023/10/28 07:39:01;;;;;;;29.23;21.35;;;;;;;-149.70;100.00;76196.69;5000310;28;20100;-63
2023/10/28 07:41:29;;;;;;;31.42;21.65;;;;;;;-149.70;100.00;76204.81;5000848;28;20074;-63
2023/10/28 07:43:57;;;;;;;31.25;22.00;;;;;;;-149.70;100.00;76219.06;5000130;28;20430;-63
2023/10/28 07:46:29;;;;;;;30.60;22.08;;;;;;;-149.70;100.00;76217.03;5000224;28;20054;-63
2023/10/28 07:48:56;;;;;;;32.95;22.30;;;;;;;-149.70;100.00;76227.19;5001174;28;20491;-64
2023/10/28 07:51:24;;;;;;;34.10;23.58;;;;;;;-149.70;100.00;76233.28;5001303;28;20565;-64
2023/10/28 07:53:52;;;;;;;37.72;24.67;;;;;;;-149.70;100.00;76217.03;5014696;28;20137;-65
2023/10/28 07:56:19;;;;;;;33.75;22.02;;;;;;;-149.70;100.00;76198.72;5023238;28;20050;-63
2023/10/28 07:58:50;;;;;;;30.58;21.67;;;;;;;-149.70;100.00;76198.72;5022990;28;20096;-62
2023/10/28 08:01:17;;;;;;;32.78;21.83;;;;;;;-149.70;100.00;76194.66;5023224;28;20129;-64
2023/10/28 08:03:47;;;;;;;28.08;20.75;;;;;;;-149.70;100.00;76166.19;5019913;28;20045;-63
2023/10/28 08:06:15;;;;;;;28.00;19.92;;;;;;;-149.70;100.00;76149.94;5020187;28;20495;-63
2023/10/28 08:09:00;;;;;;;29.20;21.95;;;;;;;-149.70;100.00;76180.44;5020350;28;20052;-63
2023/10/28 08:11:29;;;;;;;33.53;20.42;;;;;;;-149.70;100.00;76160.09;5020377;28;20199;-63
2023/10/28 08:13:56;;;;;;;27.52;20.20;;;;;;;-149.70;100.00;76145.88;5021154;28;20049;-63
2023/10/28 08:16:23;;;;;;;28.98;19.08;;;;;;;-149.70;100.00;76162.13;5023040;28;20058;-63
2023/10/28 08:18:50;;;;;;;25.48;19.30;;;;;;;-149.70;100.00;76172.28;5023311;28;20057;-63
2023/10/28 08:21:16;;;;;;;30.58;20.60;;;;;;;-149.70;100.00;76180.44;5023215;28;20050;-63
2023/10/28 08:23:44;;;;;;;28.90;20.70;;;;;;;-149.70;100.00;76178.41;5023603;28;20048;-63
2023/10/28 08:26:12;;;;;;;28.23;19.50;;;;;;;-149.70;100.00;76158.06;5023074;28;20046;-63
2023/10/28 08:28:39;;;;;;;28.08;20.23;;;;;;;-149.70;100.00;76164.16;5023252;28;20053;-63
2023/10/28 08:31:07;;;;;;;28.98;20.33;;;;;;;-149.70;100.00;76162.13;5007389;28;20048;-62
2023/10/28 08:33:37;;;;;;;28.38;20.17;;;;;;;-149.70;100.00;76149.94;5023830;28;20069;-62
2023/10/28 08:36:04;;;;;;;27.95;20.13;;;;;;;-149.70;100.00;76158.06;5024609;28;20053;-62
2023/10/28 08:38:32;;;;;;;26.83;18.63;;;;;;;-149.70;100.00;76131.63;5023728;28;20061;-63
2023/10/28 08:41:00;;;;;;;26.60;18.67;;;;;;;-149.70;100.00;76145.88;5024813;28;20073;-63
2023/10/28 08:43:27;;;;;;;28.73;20.20;;;;;;;-149.70;100.00;76129.59;5024358;28;20054;-63
2023/10/28 08:45:54;;;;;;;26.48;19.27;;;;;;;-149.70;100.00;76113.34;5024103;28;20079;-62
2023/10/28 08:48:22;;;;;;;27.73;19.25;;;;;;;-149.70;100.00;76125.53;5025581;28;20065;-62
2023/10/28 08:50:55;;;;;;;27.15;18.25;;;;;;;-149.70;100.00;76125.53;5024884;28;20109;-63
2023/10/28 08:53:22;;;;;;;23.45;18.67;;;;;;;-149.70;100.00;76121.47;5015850;28;20082;-66
2023/10/28 08:55:52;;;;;;;27.45;18.08;;;;;;;-149.70;100.00;76129.59;5004690;28;20046;-63
2023/10/28 08:58:21;;;;;;;21.83;17.33;;;;;;;-149.70;100.00;76107.22;5004724;28;20061;-63
2023/10/28 09:00:47;;;;;;;24.05;17.75;;;;;;;-149.70;100.00;76107.22;5004943;28;20051;-63
2023/10/28 09:03:21;;;;;;;22.65;17.00;;;;;;;-149.70;100.00;76090.97;5004938;28;20050;-63
2023/10/28 09:05:52;;;;;;;25.75;17.25;;;;;;;-149.70;100.00;76082.84;5005466;28;20050;-63
2023/10/28 09:08:19;;;;;;;20.73;16.38;;;;;;;-149.70;100.00;76076.75;5004942;28;20042;-63
2023/10/28 09:10:46;;;;;;;20.48;15.20;;;;;;;-149.70;100.00;76058.44;5004947;28;20054;-63
2023/10/28 09:13:14;;;;;;;18.85;14.55;;;;;;;-149.70;100.00;76058.44;5005378;28;20074;-63
2023/10/28 09:15:41;;;;;;;19.05;13.88;;;;;;;-149.70;100.00;76046.25;5004350;28;20499;-63
2023/10/28 09:18:10;;;;;;;17.27;14.43;;;;;;;-149.70;100.00;76058.44;5004548;28;20043;-63
2023/10/28 09:20:40;;;;;;;20.30;16.20;;;;;;;-149.70;100.00;76050.31;5004698;28;20049;-63
2023/10/28 09:23:06;;;;;;;19.83;13.05;;;;;;;-149.70;100.00;76040.13;5004939;28;20047;-65
2023/10/28 09:25:34;;;;;;;13.07;11.50;;;;;;;-149.70;100.00;75999.47;5003920;28;20050;-64
2023/10/28 09:28:08;;;;;;;13.43;11.35;;;;;;;-149.70;100.00;76070.63;5004058;28;20061;-63
2023/10/28 09:30:47;;;;;;;12.85;11.07;;;;;;;-149.70;100.00;76050.31;5004682;28;20050;-63
2023/10/28 09:33:15;;;;;;;15.13;12.30;;;;;;;-149.70;100.00;76076.75;4986561;28;20046;-63
2023/10/28 09:35:45;;;;;;;15.82;12.55;;;;;;;-149.70;100.00;76070.63;5004834;28;20566;-63
2023/10/28 09:38:12;;;;;;;12.75;11.07;;;;;;;-149.70;100.00;76056.41;4985831;28;20059;-63
2023/10/28 09:40:39;;;;;;;12.18;10.88;;;;;;;-149.70;100.00;76027.94;5004423;28;20050;-63
2023/10/28 09:43:06;;;;;;;14.40;11.77;;;;;;;-149.70;100.00;76027.94;5003654;28;20046;-63
2023/10/28 09:45:35;;;;;;;11.98;10.52;;;;;;;-149.70;100.00;76021.84;5003860;28;20475;-63
2023/10/28 09:48:07;;;;;;;15.95;10.20;;;;;;;-149.70;100.00;76040.13;5003520;28;20511;-63
2023/10/28 09:50:42;;;;;;;12.73;10.18;;;;;;;-149.70;100.00;76056.41;5003125;28;20048;-63
2023/10/28 09:53:15;;;;;;;13.75;11.73;;;;;;;-149.70;100.00;76036.06;4985853;28;20046;-63
2023/10/28 09:55:43;;;;;;;16.60;11.30;;;;;;;-149.70;100.00;76036.06;5003897;28;20502;-63
2023/10/28 09:58:26;;;;;;;10.32;9.20;;;;;;;-149.70;100.00;76070.63;5004029;28;20042;-63
2023/10/28 10:01:02;;;;;;;11.18;9.45;;;;;;;-149.70;100.00;76044.22;5003896;28;20054;-64
2023/10/28 10:03:52;;;;;;;10.60;8.82;;;;;;;-149.70;100.00;75971.00;5003741;28;20046;-63
2023/10/28 10:06:19;;;;;;;13.95;6.95;;;;;;;-149.70;100.00;75968.97;5004068;28;20068;-63
2023/10/28 10:08:50;;;;;;;9.43;6.93;;;;;;;-149.70;100.00;75944.59;4986285;28;20046;-63
2023/10/28 10:11:25;;;;;;;11.57;10.02;;;;;;;-149.70;100.00;75887.66;4986182;28;20060;-63
2023/10/28 10:13:52;;;;;;;10.43;7.38;;;;;;;-149.70;100.00;75899.84;5003480;28;20077;-63
2023/10/28 10:16:32;;;;;;;8.23;6.85;;;;;;;-149.70;100.00;75893.75;5003363;28;20046;-63
2023/10/28 10:19:05;;;;;;;6.90;6.20;;;;;;;-149.70;100.00;75885.63;5001108;28;20466;-63
2023/10/28 10:21:34;;;;;;;8.23;6.32;;;;;;;-149.70;100.00;75802.28;5001178;28;20085;-64
2023/10/28 10:24:06;;;;;;;7.07;6.20;;;;;;;-149.70;100.00;75820.56;5001267;28;20050;-63
2023/10/28 10:26:34;;;;;;;7.72;5.70;;;;;;;-149.70;100.00;75779.91;5001861;28;20078;-63
2023/10/28 10:29:06;;;;;;;9.80;4.88;;;;;;;-149.70;100.00;75708.75;5001399;28;20050;-62
2023/10/28 10:31:34;;;;;;;;;;;;;;;-149.70;100.00;75727.06;4997447;28;20499;-62
2023/10/28 10:34:07;;;;;;;8.40;5.28;;;;;;;-149.70;100.00;75741.28;4996740;28;20383;-62
2023/10/28 10:36:40;;;;;;;8.57;4.72;;;;;;;-149.70;100.00;75696.56;4996413;28;20077;-62
2023/10/28 10:39:20;;;;;;;7.30;4.75;;;;;;;-149.70;100.00;75700.63;4996304;28;20046;-62
2023/10/28 10:41:49;;;;;;;10.75;5.88;;;;;;;-149.70;100.00;75759.59;4995685;28;20565;-61
2023/10/28 10:44:36;;;;;;;5.28;4.72;;;;;;;-149.70;100.00;75800.25;4995744;28;20046;-62
2023/10/28 10:47:10;;;;;;;6.97;6.00;;;;;;;-149.70;100.00;75826.66;4995662;28;20042;-62
2023/10/28 10:49:40;;;;;;;11.18;7.22;;;;;;;-149.70;100.00;75822.59;4979312;28;20061;-61
2023/10/28 10:52:08;;;;;;;8.07;6.65;;;;;;;-149.70;100.00;75802.28;4999071;28;20057;-61
2023/10/28 10:54:38;;;;;;;7.80;6.40;;;;;;;-149.70;100.00;75794.13;4999308;28;20062;-62
2023/10/28 10:57:06;;;;;;;6.80;5.97;;;;;;;-149.70;100.00;75788.03;4999424;28;20047;-61
2023/10/28 10:59:38;;;;;;;7.82;5.95;;;;;;;-149.70;100.00;75814.47;4999400;28;20145;-61
2023/10/28 11:02:04;;;;;;;6.90;5.50;;;;;;;-149.70;100.00;75834.81;4998748;28;20047;-61
2023/10/28 11:04:34;;;;;;;9.13;6.35;;;;;;;-149.70;100.00;75844.97;4998788;28;20470;-62